createdAt,value
2023-05-14T00:01:56.784Z,8.40
2023-05-14T00:07:01.364Z,8.30
2023-05-14T00:12:05.862Z,8.50
2023-05-14T00:17:09.625Z,7.40
2023-05-14T00:22:13.520Z,7.70
2023-05-14T00:27:17.466Z,7.80
2023-05-14T00:32:21.541Z,7.50
2023-05-14T00:37:25.852Z,7.30
2023-05-14T00:42:29.547Z,8.10
2023-05-14T00:47:35.227Z,6.50
2023-05-14T00:52:39.790Z,6.80
2023-05-14T00:57:44.210Z,6.40
2023-05-14T01:02:48.139Z,7.60
2023-05-14T01:08:08.997Z,6.20
2023-05-14T01:13:27.956Z,6.20
2023-05-14T01:18:34.043Z,6.90
2023-05-14T01:23:38.357Z,6.50
2023-05-14T01:28:42.837Z,6.30
2023-05-14T01:33:49.847Z,6.10
2023-05-14T01:38:55.025Z,7.10
2023-05-14T01:43:59.285Z,5.90
2023-05-14T01:49:03.823Z,6.00
2023-05-14T01:54:07.680Z,5.40
2023-05-14T01:59:11.648Z,5.80
2023-05-14T02:04:16.069Z,5.70
2023-05-14T02:09:19.932Z,6.00
2023-05-14T02:14:23.730Z,5.80
2023-05-14T02:19:27.328Z,6.00
2023-05-14T02:24:31.083Z,6.10
2023-05-14T02:29:34.845Z,5.40
2023-05-14T02:34:39.073Z,5.90
2023-05-14T02:39:42.806Z,6.50
2023-05-14T02:44:46.850Z,6.20
2023-05-14T02:49:50.696Z,6.50
2023-05-14T02:54:54.482Z,7.30
2023-05-14T02:59:58.371Z,7.10
2023-05-14T03:05:03.774Z,7.10
2023-05-14T03:10:08.089Z,7.80
2023-05-14T03:15:12.133Z,7.70
2023-05-14T03:20:16.046Z,8.10
2023-05-14T03:25:20.696Z,7.80
2023-05-14T03:30:24.806Z,7.60
2023-05-14T03:35:29.521Z,8.30
2023-05-14T03:40:34.602Z,10.40
2023-05-14T03:45:40.328Z,8.50
2023-05-14T03:50:45.256Z,10.10
2023-05-14T03:55:49.565Z,9.70
2023-05-14T04:00:54.067Z,7.90
2023-05-14T04:05:57.756Z,9.20
2023-05-14T04:11:01.552Z,9.10
2023-05-14T04:16:06.021Z,9.20
2023-05-14T04:21:09.962Z,9.60
2023-05-14T04:26:13.751Z,8.10
2023-05-14T04:31:17.637Z,8.20
2023-05-14T04:36:21.435Z,7.90
2023-05-14T04:41:26.073Z,8.40
2023-05-14T04:46:29.937Z,8.40
2023-05-14T04:51:33.876Z,8.40
2023-05-14T04:56:37.739Z,8.50
2023-05-14T05:01:41.548Z,8.00
2023-05-14T05:06:46.268Z,6.90
2023-05-14T05:11:51.022Z,7.80
2023-05-14T05:16:54.802Z,7.50
2023-05-14T05:21:58.835Z,10.40
2023-05-14T05:27:02.827Z,9.60
2023-05-14T05:32:08.021Z,9.10
2023-05-14T05:37:14.483Z,12.70
2023-05-14T05:42:19.823Z,9.60
2023-05-14T05:47:23.819Z,8.00
2023-05-14T05:52:28.098Z,6.90
2023-05-14T05:57:32.615Z,7.30
2023-05-14T06:02:37.168Z,6.70
2023-05-14T06:07:42.777Z,6.60
2023-05-14T06:12:47.063Z,6.30
2023-05-14T06:17:51.055Z,5.40
2023-05-14T06:22:54.667Z,6.20
2023-05-14T06:27:58.707Z,5.00
2023-05-14T06:33:02.668Z,5.50
2023-05-14T06:38:06.697Z,5.00
2023-05-14T06:43:10.349Z,5.20
2023-05-14T06:48:14.413Z,4.60
2023-05-14T06:53:18.381Z,4.60
2023-05-14T06:58:22.343Z,4.40
2023-05-14T07:03:26.250Z,3.60
2023-05-14T07:08:30.181Z,3.60
2023-05-14T07:13:34.034Z,2.80
2023-05-14T07:18:37.969Z,2.60
2023-05-14T07:23:41.728Z,2.40
2023-05-14T07:28:45.504Z,2.20
2023-05-14T07:33:49.381Z,2.40
2023-05-14T07:38:53.178Z,2.10
2023-05-14T07:43:56.859Z,2.10
2023-05-14T07:49:03.609Z,2.30
2023-05-14T07:54:08.697Z,2.10
2023-05-14T07:59:14.497Z,2.10
2023-05-14T08:04:19.315Z,1.80
2023-05-14T08:09:23.071Z,2.00
2023-05-14T08:14:26.957Z,2.40
2023-05-14T08:19:30.966Z,2.30
2023-05-14T08:24:35.249Z,2.30
2023-05-14T08:29:39.079Z,2.40
2023-05-14T08:34:44.034Z,2.10
2023-05-14T08:39:48.138Z,2.50
2023-05-14T08:45:04.033Z,1.90
2023-05-14T08:50:08.780Z,1.90
2023-05-14T08:55:17.215Z,1.30
2023-05-14T09:00:24.103Z,1.70
2023-05-14T09:05:28.457Z,1.80
2023-05-14T09:10:32.855Z,1.70
2023-05-14T09:15:38.097Z,1.70
2023-05-14T09:20:41.851Z,1.80
2023-05-14T09:25:46.078Z,2.10
2023-05-14T09:30:53.642Z,1.80
2023-05-14T09:36:03.432Z,1.70
2023-05-14T09:41:07.527Z,1.50
2023-05-14T09:46:11.542Z,1.80
2023-05-14T09:51:16.141Z,1.60
2023-05-14T09:56:20.160Z,1.70
2023-05-14T10:01:25.063Z,1.30
2023-05-14T10:06:34.305Z,1.70
2023-05-14T10:11:38.886Z,1.60
2023-05-14T10:16:47.584Z,1.50
2023-05-14T10:22:12.209Z,2.10
2023-05-14T10:27:17.722Z,1.50
2023-05-14T10:32:24.659Z,1.40
2023-05-14T10:37:29.408Z,1.60
2023-05-14T10:42:42.964Z,1.40
2023-05-14T10:47:49.161Z,1.60
2023-05-14T10:52:53.661Z,1.80
2023-05-14T10:58:05.981Z,1.60
2023-05-14T11:03:10.977Z,1.70
2023-05-14T11:08:14.830Z,1.00
2023-05-14T11:13:19.659Z,1.40
2023-05-14T11:18:29.303Z,1.50
2023-05-14T11:23:33.514Z,1.40
2023-05-14T11:28:37.487Z,1.50
2023-05-14T11:33:41.798Z,1.50
2023-05-14T11:38:52.947Z,1.90
2023-05-14T11:43:58.816Z,1.60
2023-05-14T11:49:05.370Z,1.50
2023-05-14T11:54:09.780Z,1.60
2023-05-14T11:59:13.602Z,1.70
2023-05-14T12:04:19.243Z,1.60
2023-05-14T12:09:23.447Z,1.50
2023-05-14T12:14:30.425Z,1.80
2023-05-14T12:19:34.211Z,2.10
2023-05-14T12:24:39.557Z,1.80
2023-05-14T12:29:44.294Z,1.70
2023-05-14T12:34:47.972Z,1.70
2023-05-14T12:39:51.618Z,1.70
2023-05-14T12:44:55.348Z,1.50
2023-05-14T12:49:59.444Z,1.80
2023-05-14T12:55:04.184Z,1.90
2023-05-14T13:00:14.155Z,2.50
2023-05-14T13:05:18.663Z,2.40
2023-05-14T13:10:32.464Z,2.20
2023-05-14T13:15:36.733Z,2.30
2023-05-14T13:20:43.094Z,2.60
2023-05-14T13:25:49.754Z,2.70
2023-05-14T13:31:07.409Z,2.70
2023-05-14T13:36:13.736Z,2.30
2023-05-14T13:41:17.481Z,2.90
2023-05-14T13:46:23.119Z,2.60
2023-05-14T13:51:27.444Z,2.90
2023-05-14T13:56:31.079Z,2.80
2023-05-14T14:01:34.924Z,3.20
2023-05-14T14:06:40.133Z,3.10
2023-05-14T14:11:43.943Z,3.20
2023-05-14T14:16:48.943Z,3.60
2023-05-14T14:21:52.978Z,3.80
2023-05-14T14:26:57.052Z,3.30
2023-05-14T14:32:00.858Z,4.00
2023-05-14T14:37:06.682Z,3.80
2023-05-14T14:42:10.329Z,4.10
2023-05-14T14:47:14.102Z,3.70
2023-05-14T14:52:18.911Z,3.80
2023-05-14T14:57:23.281Z,4.20
2023-05-14T15:02:27.333Z,3.90
2023-05-14T15:07:33.240Z,3.30
2023-05-14T15:12:37.029Z,3.90
2023-05-14T15:17:40.722Z,3.60
2023-05-14T15:22:44.746Z,3.50
2023-05-14T15:27:49.068Z,3.60
2023-05-14T15:32:52.947Z,3.10
2023-05-14T15:38:00.136Z,3.80
2023-05-14T15:43:04.030Z,4.60
2023-05-14T15:48:07.971Z,4.00
2023-05-14T15:53:11.772Z,4.00
2023-05-14T15:58:15.704Z,4.10
2023-05-14T16:03:21.481Z,4.00
2023-05-14T16:08:27.820Z,3.90
2023-05-14T16:13:31.957Z,4.40
2023-05-14T16:18:35.686Z,4.30
2023-05-14T16:23:39.264Z,4.40
2023-05-14T16:28:43.304Z,4.40
2023-05-14T16:33:47.219Z,4.10
2023-05-14T16:39:06.624Z,4.20
2023-05-14T16:44:11.286Z,5.10
2023-05-14T16:49:18.154Z,5.90
2023-05-14T16:54:21.959Z,5.40
2023-05-14T16:59:25.862Z,4.90
2023-05-14T17:04:29.764Z,5.10
2023-05-14T17:09:34.185Z,5.20
2023-05-14T17:14:37.961Z,4.80
2023-05-14T17:19:43.333Z,4.80
2023-05-14T17:24:47.626Z,5.40
2023-05-14T17:29:52.229Z,5.50
2023-05-14T17:34:57.136Z,5.60
2023-05-14T17:40:01.020Z,5.70
2023-05-14T17:45:06.359Z,5.00
2023-05-14T17:50:10.707Z,11.20
2023-05-14T17:55:14.776Z,11.60
2023-05-14T18:00:22.509Z,5.10
2023-05-14T18:05:26.809Z,8.70
2023-05-14T18:10:31.608Z,10.10
2023-05-14T18:15:37.278Z,8.00
2023-05-14T18:20:46.318Z,5.10
2023-05-14T18:25:51.064Z,6.00
2023-05-14T18:30:58.355Z,5.80
2023-05-14T18:36:04.256Z,6.00
2023-05-14T18:41:09.433Z,8.10
2023-05-14T18:46:14.675Z,5.40
2023-05-14T18:51:19.058Z,5.80
2023-05-14T18:56:26.816Z,4.90
2023-05-14T19:01:33.119Z,5.10
2023-05-14T19:06:43.229Z,6.00
2023-05-14T19:11:48.298Z,4.70
2023-05-14T19:16:53.097Z,4.50
2023-05-14T19:21:58.300Z,5.30
2023-05-14T19:27:05.158Z,4.70
2023-05-14T19:32:10.016Z,4.50
2023-05-14T19:37:16.799Z,6.70
2023-05-14T19:42:21.289Z,5.90
2023-05-14T19:47:25.009Z,4.80
2023-05-14T19:52:32.240Z,6.50
2023-05-14T19:57:37.668Z,6.00
2023-05-14T20:02:42.329Z,5.80
2023-05-14T20:07:49.371Z,5.20
2023-05-14T20:12:53.529Z,6.90
2023-05-14T20:17:58.336Z,7.90
2023-05-14T20:23:03.125Z,8.00
2023-05-14T20:28:07.935Z,7.30
2023-05-14T20:33:13.951Z,7.30
2023-05-14T20:38:19.701Z,8.10
2023-05-14T20:43:23.715Z,8.50
2023-05-14T20:48:28.204Z,10.30
2023-05-14T20:53:32.138Z,9.10
2023-05-14T20:58:35.947Z,9.80
2023-05-14T21:03:41.703Z,10.00
2023-05-14T21:08:46.260Z,9.70
2023-05-14T21:13:50.242Z,10.20
2023-05-14T21:18:55.155Z,9.90
2023-05-14T21:23:59.058Z,9.10
2023-05-14T21:29:04.488Z,9.10
2023-05-14T21:34:08.778Z,9.50
2023-05-14T21:39:13.110Z,9.20
2023-05-14T21:44:17.554Z,10.80
2023-05-14T21:49:21.961Z,10.40
2023-05-14T21:54:25.989Z,10.80
2023-05-14T21:59:30.055Z,11.00
2023-05-14T22:04:34.476Z,11.90
2023-05-14T22:09:38.741Z,11.70
2023-05-14T22:14:42.586Z,11.90
2023-05-14T22:19:46.728Z,12.10
2023-05-14T22:24:50.584Z,13.30
2023-05-14T22:29:55.443Z,13.20
2023-05-14T22:34:59.379Z,12.90
2023-05-14T22:40:05.417Z,14.10
2023-05-14T22:45:09.984Z,13.80
2023-05-14T22:50:13.936Z,13.10
2023-05-14T22:55:18.374Z,12.90
2023-05-14T23:00:22.631Z,12.20
2023-05-14T23:05:27.337Z,11.30
2023-05-14T23:10:31.669Z,11.80
2023-05-14T23:15:35.484Z,13.30
2023-05-14T23:20:39.313Z,12.50
2023-05-14T23:25:43.320Z,13.00
2023-05-14T23:30:47.058Z,13.20
2023-05-14T23:35:50.821Z,12.20
2023-05-14T23:40:54.605Z,11.40
2023-05-14T23:45:58.958Z,12.10
2023-05-14T23:51:03.041Z,14.10
2023-05-14T23:56:06.950Z,15.30
